Cunard, West Virginia
Current Conditions -  °F | °C
As of 12:51 AM on Thursday 18 Dec 2014 (Local Time) from KBKW Reporting Station
Overcast Overcast  
Wind Chill: 19°   Ceiling: 1300
Heat Index: 29°   Visibility: 10mi
Dew Point: 23°   Wind: 12mph
Humidity: 78%   Direction: 290°WNW
Pressure: 30.11"   Gusts: NA
Location:  38.0317°N, 81.0282°W
Report Text: KBKW 180551Z AUTO 29010KT 10SM OVC013 M02/M05 A3011 RMK AO2 SLP221 T10171050 10000 21017 56004
Loading
Personal Weather Stations






























Interactive Weather Map New forecast layout! Learn more

10-Day Weather Forecast

Advertisements
Track Severe Weather on mobile